sensor_id;sensor_type;location;lat;lon;timestamp;pressure;altitude;pressure_sealevel;temperature;humidity
76808;BME280;65758;45.458;11.062;2023-01-19T00:00:51;99304.14;;;6.07;72.07
76808;BME280;65758;45.458;11.062;2023-01-19T00:03:17;99309.36;;;6.10;72.09
76808;BME280;65758;45.458;11.062;2023-01-19T00:05:44;99311.93;;;6.11;71.85
76808;BME280;65758;45.458;11.062;2023-01-19T00:08:12;99317.13;;;6.10;71.47
76808;BME280;65758;45.458;11.062;2023-01-19T00:10:48;99319.55;;;6.07;71.74
76808;BME280;65758;45.458;11.062;2023-01-19T00:13:16;99323.64;;;6.05;71.57
76808;BME280;65758;45.458;11.062;2023-01-19T00:15:43;99325.77;;;6.06;71.95
76808;BME280;65758;45.458;11.062;2023-01-19T00:18:10;99319.80;;;6.08;72.03
76808;BME280;65758;45.458;11.062;2023-01-19T00:20:38;99317.65;;;6.09;72.31
76808;BME280;65758;45.458;11.062;2023-01-19T00:23:05;99315.02;;;6.09;72.18
76808;BME280;65758;45.458;11.062;2023-01-19T00:25:34;99315.15;;;6.05;71.66
76808;BME280;65758;45.458;11.062;2023-01-19T00:28:01;99314.02;;;6.03;71.99
76808;BME280;65758;45.458;11.062;2023-01-19T00:30:27;99316.45;;;6.08;72.03
76808;BME280;65758;45.458;11.062;2023-01-19T00:32:54;99312.77;;;6.13;71.72
76808;BME280;65758;45.458;11.062;2023-01-19T00:35:21;99312.45;;;6.16;71.74
76808;BME280;65758;45.458;11.062;2023-01-19T00:37:48;99307.98;;;6.16;71.40
76808;BME280;65758;45.458;11.062;2023-01-19T00:40:15;99303.88;;;6.16;71.47
76808;BME280;65758;45.458;11.062;2023-01-19T00:42:42;99301.10;;;6.14;71.59
76808;BME280;65758;45.458;11.062;2023-01-19T00:45:20;99299.59;;;6.14;71.59
76808;BME280;65758;45.458;11.062;2023-01-19T00:47:48;99296.62;;;6.12;71.63
76808;BME280;65758;45.458;11.062;2023-01-19T00:50:19;99290.05;;;6.13;72.01
76808;BME280;65758;45.458;11.062;2023-01-19T00:52:46;99288.05;;;6.13;71.57
76808;BME280;65758;45.458;11.062;2023-01-19T00:55:14;99285.77;;;6.13;71.90
76808;BME280;65758;45.458;11.062;2023-01-19T00:57:41;99285.95;;;6.18;71.76
76808;BME280;65758;45.458;11.062;2023-01-19T01:00:13;99280.45;;;6.22;71.66
76808;BME280;65758;45.458;11.062;2023-01-19T01:02:41;99283.94;;;6.24;71.76
76808;BME280;65758;45.458;11.062;2023-01-19T01:05:09;99289.33;;;6.27;71.47
76808;BME280;65758;45.458;11.062;2023-01-19T01:07:37;99286.45;;;6.25;71.22
76808;BME280;65758;45.458;11.062;2023-01-19T01:10:13;99291.40;;;6.28;71.55
76808;BME280;65758;45.458;11.062;2023-01-19T01:12:41;99290.98;;;6.31;71.37
76808;BME280;65758;45.458;11.062;2023-01-19T01:15:28;99293.58;;;6.32;70.85
76808;BME280;65758;45.458;11.062;2023-01-19T01:17:55;99293.80;;;6.33;70.83
76808;BME280;65758;45.458;11.062;2023-01-19T01:20:23;99293.96;;;6.33;70.60
76808;BME280;65758;45.458;11.062;2023-01-19T01:22:52;99295.53;;;6.32;70.31
76808;BME280;65758;45.458;11.062;2023-01-19T01:25:20;99296.39;;;6.32;70.35
76808;BME280;65758;45.458;11.062;2023-01-19T01:27:50;99297.23;;;6.29;70.46
76808;BME280;65758;45.458;11.062;2023-01-19T01:30:17;99297.91;;;6.23;70.35
76808;BME280;65758;45.458;11.062;2023-01-19T01:32:44;99299.10;;;6.19;70.32
76808;BME280;65758;45.458;11.062;2023-01-19T01:35:11;99303.79;;;6.19;71.33
76808;BME280;65758;45.458;11.062;2023-01-19T01:37:38;99309.74;;;6.22;71.84
76808;BME280;65758;45.458;11.062;2023-01-19T01:40:06;99308.36;;;6.26;71.53
76808;BME280;65758;45.458;11.062;2023-01-19T01:42:33;99309.71;;;6.28;71.55
76808;BME280;65758;45.458;11.062;2023-01-19T01:45:03;99307.70;;;6.25;71.51
76808;BME280;65758;45.458;11.062;2023-01-19T01:47:53;99312.45;;;6.24;71.42
76808;BME280;65758;45.458;11.062;2023-01-19T01:50:24;99310.46;;;6.21;71.50
76808;BME280;65758;45.458;11.062;2023-01-19T01:53:03;99307.00;;;6.19;71.44
76808;BME280;65758;45.458;11.062;2023-01-19T01:55:38;99305.46;;;6.19;71.48
76808;BME280;65758;45.458;11.062;2023-01-19T01:58:06;99304.89;;;6.18;71.65
76808;BME280;65758;45.458;11.062;2023-01-19T02:00:34;99300.70;;;6.17;71.59
76808;BME280;65758;45.458;11.062;2023-01-19T02:03:22;99305.02;;;6.16;71.39
76808;BME280;65758;45.458;11.062;2023-01-19T02:05:52;99300.41;;;6.16;71.69
76808;BME280;65758;45.458;11.062;2023-01-19T02:08:43;99295.36;;;6.18;71.78
76808;BME280;65758;45.458;11.062;2023-01-19T02:11:31;99287.94;;;6.22;71.58
76808;BME280;65758;45.458;11.062;2023-01-19T02:14:18;99290.02;;;6.22;71.73
76808;BME280;65758;45.458;11.062;2023-01-19T02:16:45;99292.95;;;6.22;71.54
76808;BME280;65758;45.458;11.062;2023-01-19T02:19:16;99295.92;;;6.22;71.59
76808;BME280;65758;45.458;11.062;2023-01-19T02:22:07;99290.91;;;6.19;71.30
76808;BME280;65758;45.458;11.062;2023-01-19T02:24:36;99293.42;;;6.17;71.40
76808;BME280;65758;45.458;11.062;2023-01-19T02:27:05;99291.19;;;6.15;71.59
76808;BME280;65758;45.458;11.062;2023-01-19T02:29:33;99295.95;;;6.14;71.71
76808;BME280;65758;45.458;11.062;2023-01-19T02:32:01;99297.38;;;6.14;71.64
76808;BME280;65758;45.458;11.062;2023-01-19T02:34:28;99303.09;;;6.19;71.80
76808;BME280;65758;45.458;11.062;2023-01-19T02:39:33;99311.18;;;6.21;71.53
76808;BME280;65758;45.458;11.062;2023-01-19T02:42:05;99309.28;;;6.23;71.67
76808;BME280;65758;45.458;11.062;2023-01-19T02:44:34;99299.95;;;6.24;71.66
76808;BME280;65758;45.458;11.062;2023-01-19T02:47:03;99288.48;;;6.23;71.92
76808;BME280;65758;45.458;11.062;2023-01-19T02:49:30;99287.64;;;6.20;71.87
76808;BME280;65758;45.458;11.062;2023-01-19T02:51:57;99287.46;;;6.13;71.87
76808;BME280;65758;45.458;11.062;2023-01-19T03:03:23;99303.73;;;6.02;72.06
76808;BME280;65758;45.458;11.062;2023-01-19T03:05:59;99307.21;;;6.06;72.02
76808;BME280;65758;45.458;11.062;2023-01-19T03:08:34;99314.23;;;6.09;72.07
76808;BME280;65758;45.458;11.062;2023-01-19T03:11:11;99322.59;;;6.08;71.94
76808;BME280;65758;45.458;11.062;2023-01-19T03:13:43;99324.55;;;6.05;71.97
76808;BME280;65758;45.458;11.062;2023-01-19T03:16:24;99324.84;;;6.00;71.79
76808;BME280;65758;45.458;11.062;2023-01-19T03:19:00;99327.48;;;5.94;71.85
76808;BME280;65758;45.458;11.062;2023-01-19T03:21:29;99328.13;;;5.90;71.72
76808;BME280;65758;45.458;11.062;2023-01-19T03:24:01;99324.65;;;5.88;72.20
76808;BME280;65758;45.458;11.062;2023-01-19T03:26:36;99320.86;;;5.86;72.44
76808;BME280;65758;45.458;11.062;2023-01-19T03:29:05;99318.83;;;5.82;72.37
76808;BME280;65758;45.458;11.062;2023-01-19T03:31:33;99318.68;;;5.81;72.42
76808;BME280;65758;45.458;11.062;2023-01-19T03:34:05;99324.36;;;5.80;72.94
76808;BME280;65758;45.458;11.062;2023-01-19T03:36:36;99329.36;;;5.78;73.01
76808;BME280;65758;45.458;11.062;2023-01-19T03:39:06;99329.35;;;5.82;72.99
76808;BME280;65758;45.458;11.062;2023-01-19T03:41:36;99333.27;;;5.82;72.87
76808;BME280;65758;45.458;11.062;2023-01-19T03:44:05;99333.59;;;5.83;72.80
76808;BME280;65758;45.458;11.062;2023-01-19T03:46:33;99341.88;;;5.84;72.64
76808;BME280;65758;45.458;11.062;2023-01-19T03:49:00;99345.05;;;5.86;72.74
76808;BME280;65758;45.458;11.062;2023-01-19T03:51:27;99349.58;;;5.87;72.42
76808;BME280;65758;45.458;11.062;2023-01-19T03:53:55;99350.16;;;5.88;72.58
76808;BME280;65758;45.458;11.062;2023-01-19T03:56:23;99351.04;;;5.91;72.64
76808;BME280;65758;45.458;11.062;2023-01-19T03:58:50;99355.34;;;5.91;72.38
76808;BME280;65758;45.458;11.062;2023-01-19T04:01:19;99344.61;;;5.94;72.45
76808;BME280;65758;45.458;11.062;2023-01-19T04:03:49;99340.59;;;5.97;72.65
76808;BME280;65758;45.458;11.062;2023-01-19T04:06:17;99335.27;;;5.97;72.62
76808;BME280;65758;45.458;11.062;2023-01-19T04:08:47;99326.13;;;5.96;72.70
76808;BME280;65758;45.458;11.062;2023-01-19T04:11:14;99318.58;;;5.95;72.49
76808;BME280;65758;45.458;11.062;2023-01-19T04:13:41;99314.73;;;5.93;72.54
76808;BME280;65758;45.458;11.062;2023-01-19T04:16:09;99321.45;;;5.95;72.38
76808;BME280;65758;45.458;11.062;2023-01-19T04:18:36;99328.77;;;5.98;72.58
76808;BME280;65758;45.458;11.062;2023-01-19T04:21:06;99332.13;;;6.02;73.17
76808;BME280;65758;45.458;11.062;2023-01-19T04:23:33;99338.52;;;6.05;73.03
76808;BME280;65758;45.458;11.062;2023-01-19T04:26:01;99338.87;;;6.04;72.78
76808;BME280;65758;45.458;11.062;2023-01-19T04:28:47;99340.58;;;6.03;72.81
76808;BME280;65758;45.458;11.062;2023-01-19T04:31:13;99336.10;;;6.07;72.73
76808;BME280;65758;45.458;11.062;2023-01-19T04:33:40;99334.09;;;6.08;72.94
76808;BME280;65758;45.458;11.062;2023-01-19T04:36:07;99324.77;;;6.07;72.80
76808;BME280;65758;45.458;11.062;2023-01-19T04:38:34;99324.14;;;6.08;73.00
76808;BME280;65758;45.458;11.062;2023-01-19T04:41:01;99331.49;;;6.08;73.14
76808;BME280;65758;45.458;11.062;2023-01-19T04:43:27;99330.20;;;6.08;73.36
76808;BME280;65758;45.458;11.062;2023-01-19T04:45:54;99332.95;;;6.08;73.45
76808;BME280;65758;45.458;11.062;2023-01-19T04:48:21;99331.55;;;6.07;73.75
76808;BME280;65758;45.458;11.062;2023-01-19T04:50:49;99333.27;;;6.06;73.97
76808;BME280;65758;45.458;11.062;2023-01-19T04:53:16;99331.84;;;6.10;73.82
76808;BME280;65758;45.458;11.062;2023-01-19T04:55:44;99335.66;;;6.17;73.97
76808;BME280;65758;45.458;11.062;2023-01-19T04:58:10;99333.89;;;6.23;73.75
76808;BME280;65758;45.458;11.062;2023-01-19T05:00:37;99328.70;;;6.27;73.82
76808;BME280;65758;45.458;11.062;2023-01-19T05:03:04;99331.41;;;6.25;73.85
76808;BME280;65758;45.458;11.062;2023-01-19T05:05:31;99333.84;;;6.26;74.17
76808;BME280;65758;45.458;11.062;2023-01-19T05:07:58;99332.40;;;6.25;74.00
76808;BME280;65758;45.458;11.062;2023-01-19T05:10:26;99333.65;;;6.22;73.88
76808;BME280;65758;45.458;11.062;2023-01-19T05:12:53;99337.19;;;6.21;74.08
76808;BME280;65758;45.458;11.062;2023-01-19T05:15:19;99335.98;;;6.20;74.07
76808;BME280;65758;45.458;11.062;2023-01-19T05:17:46;99335.82;;;6.25;74.14
76808;BME280;65758;45.458;11.062;2023-01-19T05:20:13;99333.17;;;6.32;74.26
76808;BME280;65758;45.458;11.062;2023-01-19T05:22:47;99337.48;;;6.37;74.52
76808;BME280;65758;45.458;11.062;2023-01-19T05:25:14;99339.11;;;6.39;74.58
76808;BME280;65758;45.458;11.062;2023-01-19T05:27:40;99340.66;;;6.38;74.35
76808;BME280;65758;45.458;11.062;2023-01-19T05:30:08;99350.27;;;6.38;74.38
76808;BME280;65758;45.458;11.062;2023-01-19T05:32:35;99361.45;;;6.37;74.75
76808;BME280;65758;45.458;11.062;2023-01-19T05:35:02;99362.14;;;6.36;74.69
76808;BME280;65758;45.458;11.062;2023-01-19T05:37:29;99362.04;;;6.35;74.77
76808;BME280;65758;45.458;11.062;2023-01-19T05:39:58;99365.00;;;6.36;74.87
76808;BME280;65758;45.458;11.062;2023-01-19T05:42:24;99370.67;;;6.41;74.94
76808;BME280;65758;45.458;11.062;2023-01-19T05:44:51;99374.45;;;6.45;74.93
76808;BME280;65758;45.458;11.062;2023-01-19T05:47:18;99381.77;;;6.44;74.84
76808;BME280;65758;45.458;11.062;2023-01-19T05:49:44;99381.52;;;6.42;75.36
76808;BME280;65758;45.458;11.062;2023-01-19T05:52:11;99385.33;;;6.42;75.41
76808;BME280;65758;45.458;11.062;2023-01-19T05:54:38;99385.45;;;6.43;75.30
76808;BME280;65758;45.458;11.062;2023-01-19T05:57:06;99385.36;;;6.42;75.65
76808;BME280;65758;45.458;11.062;2023-01-19T05:59:33;99385.70;;;6.41;75.53
76808;BME280;65758;45.458;11.062;2023-01-19T06:01:59;99391.86;;;6.43;75.52
76808;BME280;65758;45.458;11.062;2023-01-19T06:04:26;99392.61;;;6.47;75.40
76808;BME280;65758;45.458;11.062;2023-01-19T06:06:53;99393.41;;;6.46;75.32
76808;BME280;65758;45.458;11.062;2023-01-19T06:09:19;99390.77;;;6.45;74.73
76808;BME280;65758;45.458;11.062;2023-01-19T06:11:46;99397.87;;;6.40;75.05
76808;BME280;65758;45.458;11.062;2023-01-19T06:14:13;99395.91;;;6.40;75.12
76808;BME280;65758;45.458;11.062;2023-01-19T06:16:40;99396.58;;;6.41;75.16
76808;BME280;65758;45.458;11.062;2023-01-19T06:19:07;99405.10;;;6.45;75.90
76808;BME280;65758;45.458;11.062;2023-01-19T06:21:34;99411.34;;;6.48;75.61
76808;BME280;65758;45.458;11.062;2023-01-19T06:24:00;99415.50;;;6.45;75.20
76808;BME280;65758;45.458;11.062;2023-01-19T06:26:28;99419.45;;;6.40;75.46
76808;BME280;65758;45.458;11.062;2023-01-19T06:28:55;99422.58;;;6.39;75.36
76808;BME280;65758;45.458;11.062;2023-01-19T06:31:21;99422.42;;;6.34;75.87
76808;BME280;65758;45.458;11.062;2023-01-19T06:33:48;99423.40;;;6.34;76.37
76808;BME280;65758;45.458;11.062;2023-01-19T06:36:15;99428.92;;;6.39;75.86
76808;BME280;65758;45.458;11.062;2023-01-19T06:38:42;99432.40;;;6.43;76.06
76808;BME280;65758;45.458;11.062;2023-01-19T06:41:09;99437.73;;;6.45;76.34
76808;BME280;65758;45.458;11.062;2023-01-19T06:43:36;99440.31;;;6.46;76.13
76808;BME280;65758;45.458;11.062;2023-01-19T06:46:02;99442.00;;;6.40;76.13
76808;BME280;65758;45.458;11.062;2023-01-19T06:48:30;99448.61;;;6.42;76.40
76808;BME280;65758;45.458;11.062;2023-01-19T06:50:57;99459.13;;;6.49;76.36
76808;BME280;65758;45.458;11.062;2023-01-19T06:53:25;99463.71;;;6.52;75.81
76808;BME280;65758;45.458;11.062;2023-01-19T06:55:59;99460.39;;;6.51;75.83
76808;BME280;65758;45.458;11.062;2023-01-19T06:58:29;99468.77;;;6.47;76.39
76808;BME280;65758;45.458;11.062;2023-01-19T07:01:05;99468.40;;;6.46;76.01
76808;BME280;65758;45.458;11.062;2023-01-19T07:03:35;99470.83;;;6.43;76.33
76808;BME280;65758;45.458;11.062;2023-01-19T07:06:04;99476.17;;;6.40;76.12
76808;BME280;65758;45.458;11.062;2023-01-19T07:08:33;99480.39;;;6.41;76.35
76808;BME280;65758;45.458;11.062;2023-01-19T07:11:08;99483.86;;;6.49;76.68
76808;BME280;65758;45.458;11.062;2023-01-19T07:13:55;99488.20;;;6.61;76.99
76808;BME280;65758;45.458;11.062;2023-01-19T07:16:22;99491.38;;;6.72;77.53
76808;BME280;65758;45.458;11.062;2023-01-19T07:18:49;99499.45;;;6.82;76.83
76808;BME280;65758;45.458;11.062;2023-01-19T07:21:17;99495.89;;;6.81;76.70
76808;BME280;65758;45.458;11.062;2023-01-19T07:23:43;99502.55;;;6.78;76.41
76808;BME280;65758;45.458;11.062;2023-01-19T07:26:10;99505.15;;;6.71;76.20
76808;BME280;65758;45.458;11.062;2023-01-19T07:28:36;99508.23;;;6.70;76.60
76808;BME280;65758;45.458;11.062;2023-01-19T07:31:03;99508.10;;;6.69;76.10
76808;BME280;65758;45.458;11.062;2023-01-19T07:33:30;99516.87;;;6.62;76.13
76808;BME280;65758;45.458;11.062;2023-01-19T07:35:57;99514.56;;;6.51;75.55
76808;BME280;65758;45.458;11.062;2023-01-19T07:38:24;99515.61;;;6.36;75.07
76808;BME280;65758;45.458;11.062;2023-01-19T07:40:51;99528.67;;;6.18;75.37
76808;BME280;65758;45.458;11.062;2023-01-19T07:43:17;99534.56;;;6.00;75.28
76808;BME280;65758;45.458;11.062;2023-01-19T07:45:45;99540.39;;;5.91;75.78
76808;BME280;65758;45.458;11.062;2023-01-19T07:48:11;99546.95;;;5.86;75.72
76808;BME280;65758;45.458;11.062;2023-01-19T07:50:38;99546.95;;;5.81;76.07
76808;BME280;65758;45.458;11.062;2023-01-19T07:53:06;99554.14;;;5.77;76.28
76808;BME280;65758;45.458;11.062;2023-01-19T07:55:34;99559.16;;;5.75;76.02
76808;BME280;65758;45.458;11.062;2023-01-19T07:58:01;99565.20;;;5.76;76.33
76808;BME280;65758;45.458;11.062;2023-01-19T08:00:33;99570.93;;;5.79;76.27
76808;BME280;65758;45.458;11.062;2023-01-19T08:03:02;99574.62;;;5.83;76.28
76808;BME280;65758;45.458;11.062;2023-01-19T08:05:30;99583.23;;;5.88;76.15
76808;BME280;65758;45.458;11.062;2023-01-19T08:07:58;99584.43;;;5.90;76.27
76808;BME280;65758;45.458;11.062;2023-01-19T08:10:27;99589.61;;;5.90;76.05
76808;BME280;65758;45.458;11.062;2023-01-19T08:12:54;99596.72;;;5.90;76.02
76808;BME280;65758;45.458;11.062;2023-01-19T08:15:22;99599.67;;;5.91;76.35
76808;BME280;65758;45.458;11.062;2023-01-19T08:18:01;99607.00;;;5.96;76.26
76808;BME280;65758;45.458;11.062;2023-01-19T08:20:31;99617.31;;;5.96;75.62
76808;BME280;65758;45.458;11.062;2023-01-19T08:22:58;99619.73;;;5.94;75.56
76808;BME280;65758;45.458;11.062;2023-01-19T08:25:33;99627.01;;;5.92;75.74
76808;BME280;65758;45.458;11.062;2023-01-19T08:28:01;99633.09;;;5.94;75.61
76808;BME280;65758;45.458;11.062;2023-01-19T08:30:28;99632.80;;;5.93;75.54
76808;BME280;65758;45.458;11.062;2023-01-19T08:32:56;99644.34;;;5.92;75.57
76808;BME280;65758;45.458;11.062;2023-01-19T08:35:30;99651.27;;;5.93;75.16
76808;BME280;65758;45.458;11.062;2023-01-19T08:37:58;99660.17;;;5.93;75.34
76808;BME280;65758;45.458;11.062;2023-01-19T08:40:28;99662.77;;;5.95;75.31
76808;BME280;65758;45.458;11.062;2023-01-19T08:43:05;99670.27;;;5.98;75.35
76808;BME280;65758;45.458;11.062;2023-01-19T08:45:34;99680.88;;;6.02;75.60
76808;BME280;65758;45.458;11.062;2023-01-19T08:48:02;99684.80;;;6.04;75.12
76808;BME280;65758;45.458;11.062;2023-01-19T08:50:31;99687.36;;;6.00;75.01
76808;BME280;65758;45.458;11.062;2023-01-19T08:53:02;99691.80;;;5.94;74.53
76808;BME280;65758;45.458;11.062;2023-01-19T08:55:33;99694.58;;;5.91;75.15
76808;BME280;65758;45.458;11.062;2023-01-19T08:58:01;99701.00;;;5.95;75.69
76808;BME280;65758;45.458;11.062;2023-01-19T09:00:31;99707.83;;;6.01;75.30
76808;BME280;65758;45.458;11.062;2023-01-19T09:03:04;99709.27;;;6.08;74.97
76808;BME280;65758;45.458;11.062;2023-01-19T09:05:34;99716.17;;;6.15;75.31
76808;BME280;65758;45.458;11.062;2023-01-19T09:08:11;99717.43;;;6.20;75.16
76808;BME280;65758;45.458;11.062;2023-01-19T09:10:44;99715.02;;;6.17;74.88
76808;BME280;65758;45.458;11.062;2023-01-19T09:13:11;99723.63;;;6.16;74.98
76808;BME280;65758;45.458;11.062;2023-01-19T09:15:40;99724.98;;;6.13;74.76
76808;BME280;65758;45.458;11.062;2023-01-19T09:18:10;99723.95;;;6.11;75.13
76808;BME280;65758;45.458;11.062;2023-01-19T09:20:40;99726.29;;;6.11;74.97
76808;BME280;65758;45.458;11.062;2023-01-19T09:23:13;99729.00;;;6.11;75.04
76808;BME280;65758;45.458;11.062;2023-01-19T09:25:42;99734.96;;;6.14;75.05
76808;BME280;65758;45.458;11.062;2023-01-19T09:28:11;99742.88;;;6.16;74.97
76808;BME280;65758;45.458;11.062;2023-01-19T09:30:41;99749.49;;;6.23;75.45
76808;BME280;65758;45.458;11.062;2023-01-19T09:33:10;99753.60;;;6.28;75.38
76808;BME280;65758;45.458;11.062;2023-01-19T09:35:38;99757.15;;;6.28;75.10
76808;BME280;65758;45.458;11.062;2023-01-19T09:38:05;99762.98;;;6.23;75.20
76808;BME280;65758;45.458;11.062;2023-01-19T09:40:55;99767.89;;;6.17;74.84
76808;BME280;65758;45.458;11.062;2023-01-19T09:46:34;99789.30;;;6.10;75.09
76808;BME280;65758;45.458;11.062;2023-01-19T09:49:14;99798.97;;;6.07;75.06
76808;BME280;65758;45.458;11.062;2023-01-19T09:51:47;99807.21;;;6.06;74.96
76808;BME280;65758;45.458;11.062;2023-01-19T09:56:47;99815.81;;;6.08;74.82
76808;BME280;65758;45.458;11.062;2023-01-19T09:59:22;99820.03;;;6.07;74.50
76808;BME280;65758;45.458;11.062;2023-01-19T10:02:17;99825.81;;;5.99;74.27
76808;BME280;65758;45.458;11.062;2023-01-19T10:07:29;99830.73;;;5.69;73.75
76808;BME280;65758;45.458;11.062;2023-01-19T10:13:02;99828.31;;;5.46;73.73
76808;BME280;65758;45.458;11.062;2023-01-19T10:15:57;99832.33;;;5.34;73.62
76808;BME280;65758;45.458;11.062;2023-01-19T10:18:41;99834.66;;;5.23;73.69
76808;BME280;65758;45.458;11.062;2023-01-19T10:21:37;99837.07;;;5.06;73.62
76808;BME280;65758;45.458;11.062;2023-01-19T10:24:28;99834.63;;;4.83;74.02
76808;BME280;65758;45.458;11.062;2023-01-19T10:26:56;99831.77;;;4.75;74.92
76808;BME280;65758;45.458;11.062;2023-01-19T10:29:24;99830.89;;;4.74;75.10
76808;BME280;65758;45.458;11.062;2023-01-19T10:32:13;99829.65;;;4.63;75.00
76808;BME280;65758;45.458;11.062;2023-01-19T10:34:40;99827.70;;;4.58;75.15
76808;BME280;65758;45.458;11.062;2023-01-19T10:39:44;99829.05;;;4.49;75.20
76808;BME280;65758;45.458;11.062;2023-01-19T10:42:14;99825.13;;;4.42;75.43
76808;BME280;65758;45.458;11.062;2023-01-19T10:44:43;99820.90;;;4.39;75.81
76808;BME280;65758;45.458;11.062;2023-01-19T10:47:18;99823.10;;;4.36;75.80
76808;BME280;65758;45.458;11.062;2023-01-19T10:49:46;99820.31;;;4.34;75.92
76808;BME280;65758;45.458;11.062;2023-01-19T10:52:34;99820.45;;;4.35;75.68
76808;BME280;65758;45.458;11.062;2023-01-19T10:55:04;99822.23;;;4.27;75.65
76808;BME280;65758;45.458;11.062;2023-01-19T10:57:40;99825.77;;;4.18;75.50
76808;BME280;65758;45.458;11.062;2023-01-19T11:00:38;99820.60;;;4.07;75.64
76808;BME280;65758;45.458;11.062;2023-01-19T11:03:20;99817.89;;;4.03;75.88
76808;BME280;65758;45.458;11.062;2023-01-19T11:05:48;99808.53;;;4.07;76.30
76808;BME280;65758;45.458;11.062;2023-01-19T11:08:28;99797.70;;;4.18;76.26
76808;BME280;65758;45.458;11.062;2023-01-19T11:10:59;99787.65;;;4.26;76.11
76808;BME280;65758;45.458;11.062;2023-01-19T11:13:30;99778.10;;;4.38;76.06
76808;BME280;65758;45.458;11.062;2023-01-19T11:16:03;99766.42;;;4.52;75.94
76808;BME280;65758;45.458;11.062;2023-01-19T11:18:33;99765.26;;;4.61;75.93
76808;BME280;65758;45.458;11.062;2023-01-19T11:21:05;99767.15;;;4.68;75.35
76808;BME280;65758;45.458;11.062;2023-01-19T11:23:35;99762.00;;;4.68;75.42
76808;BME280;65758;45.458;11.062;2023-01-19T11:26:13;99759.06;;;4.77;75.50
76808;BME280;65758;45.458;11.062;2023-01-19T11:33:23;99754.95;;;5.04;75.26
76808;BME280;65758;45.458;11.062;2023-01-19T11:36:01;99750.73;;;5.13;74.90
76808;BME280;65758;45.458;11.062;2023-01-19T11:38:28;99753.42;;;5.19;74.49
76808;BME280;65758;45.458;11.062;2023-01-19T11:40:57;99755.48;;;5.23;74.50
76808;BME280;65758;45.458;11.062;2023-01-19T11:43:28;99754.15;;;5.25;74.25
76808;BME280;65758;45.458;11.062;2023-01-19T11:46:13;99748.56;;;5.24;74.19
76808;BME280;65758;45.458;11.062;2023-01-19T11:55:55;99733.80;;;5.43;74.27
76808;BME280;65758;45.458;11.062;2023-01-19T12:02:45;99727.61;;;5.63;74.05
76808;BME280;65758;45.458;11.062;2023-01-19T12:05:15;99725.40;;;5.67;73.73
76808;BME280;65758;45.458;11.062;2023-01-19T12:07:46;99728.51;;;5.71;73.67
76808;BME280;65758;45.458;11.062;2023-01-19T12:10:29;99723.57;;;5.79;73.59
76808;BME280;65758;45.458;11.062;2023-01-19T12:12:58;99723.52;;;5.84;73.18
76808;BME280;65758;45.458;11.062;2023-01-19T12:15:30;99725.37;;;5.86;72.72
76808;BME280;65758;45.458;11.062;2023-01-19T12:18:01;99726.14;;;5.91;73.04
76808;BME280;65758;45.458;11.062;2023-01-19T12:20:41;99726.08;;;5.96;72.97
76808;BME280;65758;45.458;11.062;2023-01-19T12:23:30;99724.14;;;5.98;72.28
76808;BME280;65758;45.458;11.062;2023-01-19T12:30:49;99726.35;;;5.99;72.58
76808;BME280;65758;45.458;11.062;2023-01-19T12:41:33;99722.33;;;6.18;71.92
76808;BME280;65758;45.458;11.062;2023-01-19T12:52:28;99722.54;;;6.40;70.73
76808;BME280;65758;45.458;11.062;2023-01-19T13:10:53;99737.38;;;6.72;70.19
76808;BME280;65758;45.458;11.062;2023-01-19T13:17:51;99742.98;;;6.90;69.21
76808;BME280;65758;45.458;11.062;2023-01-19T13:20:24;99738.98;;;6.95;69.24
76808;BME280;65758;45.458;11.062;2023-01-19T13:23:18;99743.15;;;7.00;68.86
76808;BME280;65758;45.458;11.062;2023-01-19T13:25:51;99742.45;;;7.02;68.50
76808;BME280;65758;45.458;11.062;2023-01-19T13:28:25;99754.52;;;7.06;68.77
76808;BME280;65758;45.458;11.062;2023-01-19T13:30:57;99760.92;;;7.07;68.07
76808;BME280;65758;45.458;11.062;2023-01-19T13:37:46;99767.65;;;7.12;68.82
76808;BME280;65758;45.458;11.062;2023-01-19T13:44:30;99769.11;;;7.08;68.79
76808;BME280;65758;45.458;11.062;2023-01-19T13:46:58;99773.95;;;7.00;68.71
76808;BME280;65758;45.458;11.062;2023-01-19T13:49:38;99778.95;;;6.93;69.21
76808;BME280;65758;45.458;11.062;2023-01-19T13:52:14;99779.00;;;6.89;68.87
76808;BME280;65758;45.458;11.062;2023-01-19T13:55:02;99778.53;;;6.83;68.20
76808;BME280;65758;45.458;11.062;2023-01-19T13:57:39;99783.09;;;6.75;68.52
76808;BME280;65758;45.458;11.062;2023-01-19T14:02:38;99790.61;;;6.71;69.07
76808;BME280;65758;45.458;11.062;2023-01-19T14:05:50;99785.41;;;6.65;68.30
76808;BME280;65758;45.458;11.062;2023-01-19T14:12:37;99794.34;;;6.49;67.96
76808;BME280;65758;45.458;11.062;2023-01-19T14:15:20;99796.98;;;6.46;68.22
76808;BME280;65758;45.458;11.062;2023-01-19T14:18:07;99799.11;;;6.45;68.43
76808;BME280;65758;45.458;11.062;2023-01-19T14:20:34;99799.77;;;6.46;68.24
76808;BME280;65758;45.458;11.062;2023-01-19T14:23:06;99804.00;;;6.45;68.10
76808;BME280;65758;45.458;11.062;2023-01-19T14:25:52;99809.55;;;6.42;67.78
76808;BME280;65758;45.458;11.062;2023-01-19T14:28:26;99801.65;;;6.40;67.63
76808;BME280;65758;45.458;11.062;2023-01-19T14:30:58;99806.67;;;6.41;68.11
76808;BME280;65758;45.458;11.062;2023-01-19T14:37:45;99806.04;;;6.42;67.92
76808;BME280;65758;45.458;11.062;2023-01-19T14:40:18;99807.38;;;6.41;67.61
76808;BME280;65758;45.458;11.062;2023-01-19T14:42:50;99811.87;;;6.35;67.08
76808;BME280;65758;45.458;11.062;2023-01-19T14:45:36;99819.81;;;6.30;67.39
76808;BME280;65758;45.458;11.062;2023-01-19T14:48:13;99825.98;;;6.26;67.27
76808;BME280;65758;45.458;11.062;2023-01-19T14:50:44;99826.92;;;6.25;67.79
76808;BME280;65758;45.458;11.062;2023-01-19T14:53:28;99830.17;;;6.25;67.74
76808;BME280;65758;45.458;11.062;2023-01-19T14:56:00;99825.55;;;6.23;67.55
76808;BME280;65758;45.458;11.062;2023-01-19T14:58:31;99828.01;;;6.24;68.33
76808;BME280;65758;45.458;11.062;2023-01-19T15:01:00;99830.84;;;6.27;68.26
76808;BME280;65758;45.458;11.062;2023-01-19T15:03:28;99831.98;;;6.29;68.51